HTMT

Mtwara Airport

Mtwara, Tanzania
METAR HTMT 251500Z 08010KT 9999 FEW022 27/20 Q1015
Observed Flight Rules
Sep-25 @ 15:00 UTC (34 minutes ago) Visual Flight Rules
Wind Visibility Clouds
80° at 10 knots 10,000+ meters
  • Few at 2,200' AGL
Temperatures Readings
Current 27°C / 81°F
Dewpoint 20°C / 68°F
Humidity 66%
Altimeter 29.97" Hg
Pressure 1015 hPa
Elevation 113
METAR HTMT 251500Z 08010KT 9999 FEW022 27/20 Q1015
Observed Flight Rules
Sep-25 @ 15:00 UTC
(34 minutes ago)
VFR
Wind Visibility
80° at 10 knots 10,000+ meters
Clouds
  • Few at 2,200' AGL
Temperature Dewpoint
27°C / 81°F 20°C / 68°F
Humidity Altimeter Pressure
66% 29.97" Hg 1015 hPa